Time;durP1;ratioP1;P1;durP2;ratioP2;P2;SDS_P1;SDS_P2;PMS_P1;PMS_P2;Temp;Humidity;BMP_temperature;BMP_pressure;BME280_temperature;BME280_humidity;BME280_pressure;Samples;Min_cycle;Max_cycle;Signal;HPM_P1;HPM_P2
2021/05/03 00:01:32;;;;;;;6.28;3.35;;;;;;;;;;5015052;28;20200;-79
2021/05/03 00:03:59;;;;;;;3.40;2.45;;;;;;;;;;5014249;28;20207;-78
2021/05/03 00:06:27;;;;;;;3.83;3.05;;;;;;;;;;5015011;28;20198;-80
2021/05/03 00:08:53;;;;;;;4.95;3.65;;;;;;;;;;5010908;28;20693;-81
2021/05/03 00:11:20;;;;;;;3.30;3.00;;;;;;;;;;5008619;28;20200;-83
2021/05/03 00:13:47;;;;;;;6.25;4.30;;;;;;;;;;5011914;28;20191;-79
2021/05/03 00:16:14;;;;;;;6.47;3.83;;;;;;;;;;5012884;28;20201;-82
2021/05/03 00:18:40;;;;;;;7.47;3.97;;;;;;;;;;5012932;28;20218;-84
2021/05/03 00:21:07;;;;;;;4.38;3.40;;;;;;;;;;5012014;28;20199;-83
2021/05/03 00:23:35;;;;;;;3.92;3.30;;;;;;;;;;5014685;28;20200;-79
2021/05/03 00:26:02;;;;;;;4.70;3.72;;;;;;;;;;5014744;28;20201;-85
2021/05/03 00:28:28;;;;;;;6.88;3.83;;;;;;;;;;5014224;28;20216;-84
2021/05/03 00:30:55;;;;;;;5.55;3.85;;;;;;;;;;5011498;28;20593;-79
2021/05/03 00:33:22;;;;;;;7.00;3.53;;;;;;;;;;5008809;28;20196;-80
2021/05/03 00:35:49;;;;;;;4.82;3.42;;;;;;;;;;5011994;28;20191;-79
2021/05/03 00:38:15;;;;;;;5.20;3.97;;;;;;;;;;5012514;28;20591;-86
2021/05/03 00:40:43;;;;;;;4.75;3.63;;;;;;;;;;5012462;28;20205;-80
2021/05/03 00:43:16;;;;;;;4.60;3.85;;;;;;;;;;5011301;28;20203;-81
2021/05/03 00:45:44;;;;;;;5.68;3.95;;;;;;;;;;5012925;28;20201;-85
2021/05/03 00:48:10;;;;;;;4.25;3.33;;;;;;;;;;5014285;28;20219;-85
2021/05/03 00:50:37;;;;;;;5.03;3.20;;;;;;;;;;5014088;28;20553;-79
2021/05/03 00:53:04;;;;;;;5.20;4.10;;;;;;;;;;5011692;28;20198;-82
2021/05/03 00:55:31;;;;;;;10.55;4.15;;;;;;;;;;5008132;28;20237;-85
2021/05/03 00:57:59;;;;;;;5.70;3.55;;;;;;;;;;5010434;28;20248;-78
2021/05/03 01:00:26;;;;;;;4.55;4.05;;;;;;;;;;4994903;28;20198;-84
2021/05/03 01:02:53;;;;;;;4.13;3.38;;;;;;;;;;5011063;28;20198;-82
2021/05/03 01:05:20;;;;;;;6.55;3.70;;;;;;;;;;5012080;28;20250;-81
2021/05/03 01:07:47;;;;;;;4.97;3.55;;;;;;;;;;5013082;28;20228;-85
2021/05/03 01:10:14;;;;;;;5.65;3.72;;;;;;;;;;5013564;28;20188;-83
2021/05/03 01:12:41;;;;;;;6.43;3.60;;;;;;;;;;5013765;28;20198;-79
2021/05/03 01:15:10;;;;;;;8.57;3.45;;;;;;;;;;5012483;28;20658;-81
2021/05/03 01:17:39;;;;;;;4.63;3.72;;;;;;;;;;5007308;28;20237;-81
2021/05/03 01:20:07;;;;;;;3.88;3.30;;;;;;;;;;5009657;28;20221;-80
2021/05/03 01:22:35;;;;;;;5.05;3.67;;;;;;;;;;5012183;28;20202;-81
2021/05/03 01:25:01;;;;;;;8.00;3.45;;;;;;;;;;5010272;28;20209;-79
2021/05/03 01:27:28;;;;;;;6.78;3.65;;;;;;;;;;4994153;28;20656;-81
2021/05/03 01:29:55;;;;;;;4.85;3.35;;;;;;;;;;5012750;28;20216;-82
2021/05/03 01:32:22;;;;;;;4.57;4.13;;;;;;;;;;5013144;28;20681;-81
2021/05/03 01:34:48;;;;;;;3.83;3.15;;;;;;;;;;5012576;28;20200;-81
2021/05/03 01:37:16;;;;;;;4.82;3.67;;;;;;;;;;5012727;28;20230;-78
2021/05/03 01:39:43;;;;;;;5.32;3.60;;;;;;;;;;5009225;28;20186;-79
2021/05/03 01:42:10;;;;;;;7.65;3.67;;;;;;;;;;5008490;28;20176;-84
2021/05/03 01:44:38;;;;;;;7.13;4.40;;;;;;;;;;5010868;28;20206;-85
2021/05/03 01:47:04;;;;;;;3.95;3.35;;;;;;;;;;5009903;28;20200;-78
2021/05/03 01:49:31;;;;;;;6.38;3.90;;;;;;;;;;5011129;28;20212;-78
2021/05/03 01:51:58;;;;;;;4.70;4.05;;;;;;;;;;5011216;28;20197;-81
2021/05/03 01:54:25;;;;;;;6.30;3.40;;;;;;;;;;5013155;28;20213;-77
2021/05/03 01:56:53;;;;;;;6.13;4.43;;;;;;;;;;5012906;28;20231;-83
2021/05/03 01:59:20;;;;;;;8.63;4.20;;;;;;;;;;5012913;28;20303;-85
2021/05/03 02:01:47;;;;;;;4.40;4.00;;;;;;;;;;5009100;28;20270;-81
2021/05/03 02:04:14;;;;;;;4.88;3.72;;;;;;;;;;5006977;28;20262;-83
2021/05/03 02:06:41;;;;;;;4.32;3.88;;;;;;;;;;5010282;28;20562;-81
2021/05/03 02:09:09;;;;;;;8.93;5.05;;;;;;;;;;5010650;28;20233;-81
2021/05/03 02:11:36;;;;;;;6.00;5.00;;;;;;;;;;4993748;28;20196;-82
2021/05/03 02:14:04;;;;;;;5.13;4.22;;;;;;;;;;4994126;28;20196;-79
2021/05/03 02:16:31;;;;;;;5.53;4.50;;;;;;;;;;5010324;28;20231;-81
2021/05/03 02:18:58;;;;;;;5.72;4.93;;;;;;;;;;4994382;28;20641;-78
2021/05/03 02:21:25;;;;;;;7.30;4.72;;;;;;;;;;5012800;28;20229;-80
2021/05/03 02:23:52;;;;;;;5.40;3.60;;;;;;;;;;5010986;28;20263;-81
2021/05/03 02:26:19;;;;;;;5.38;4.35;;;;;;;;;;5006969;28;20346;-82
2021/05/03 02:28:45;;;;;;;5.65;4.43;;;;;;;;;;5007974;28;20253;-79
2021/05/03 02:31:13;;;;;;;5.90;4.50;;;;;;;;;;5010373;28;20200;-81
2021/05/03 02:33:40;;;;;;;5.68;4.38;;;;;;;;;;5013213;28;20200;-81
2021/05/03 02:36:07;;;;;;;7.25;5.60;;;;;;;;;;5011375;28;20680;-82
2021/05/03 02:38:34;;;;;;;9.20;4.80;;;;;;;;;;5010581;28;20237;-80
2021/05/03 02:41:01;;;;;;;5.40;4.90;;;;;;;;;;5012543;28;20232;-82
2021/05/03 02:43:27;;;;;;;7.28;5.03;;;;;;;;;;5012140;28;20224;-82
2021/05/03 02:45:54;;;;;;;9.00;4.88;;;;;;;;;;5011870;28;20221;-85
2021/05/03 02:48:22;;;;;;;6.03;4.47;;;;;;;;;;5005593;28;20232;-79
2021/05/03 02:50:49;;;;;;;6.55;4.65;;;;;;;;;;5010080;28;20207;-80
2021/05/03 02:53:16;;;;;;;6.40;5.32;;;;;;;;;;5011632;28;20196;-80
2021/05/03 02:55:42;;;;;;;8.60;4.78;;;;;;;;;;5010915;28;20205;-80
2021/05/03 02:58:09;;;;;;;7.00;4.88;;;;;;;;;;5011649;28;20235;-81
2021/05/03 03:00:37;;;;;;;9.65;5.28;;;;;;;;;;5012936;28;20226;-80
2021/05/03 03:03:04;;;;;;;7.10;5.38;;;;;;;;;;5012291;28;20204;-81
2021/05/03 03:05:32;;;;;;;5.80;5.00;;;;;;;;;;5011920;28;20202;-80
2021/05/03 03:08:01;;;;;;;6.82;5.00;;;;;;;;;;5011141;28;20235;-82
2021/05/03 03:10:28;;;;;;;6.03;5.40;;;;;;;;;;5007019;28;20280;-79
2021/05/03 03:12:55;;;;;;;13.32;4.78;;;;;;;;;;5011328;28;20284;-79
2021/05/03 03:15:24;;;;;;;6.60;5.80;;;;;;;;;;4992790;28;20204;-78
2021/05/03 03:17:52;;;;;;;10.07;5.88;;;;;;;;;;5010070;28;20231;-81
2021/05/03 03:20:19;;;;;;;11.82;6.93;;;;;;;;;;5008943;28;20234;-85
2021/05/03 03:22:47;;;;;;;8.88;5.25;;;;;;;;;;4992808;28;20200;-83
2021/05/03 03:25:14;;;;;;;8.07;5.88;;;;;;;;;;5011519;28;20200;-80
2021/05/03 03:27:41;;;;;;;6.70;4.97;;;;;;;;;;5011422;28;20223;-81
2021/05/03 03:30:09;;;;;;;6.30;4.95;;;;;;;;;;5012053;28;20258;-80
2021/05/03 03:32:39;;;;;;;7.60;6.00;;;;;;;;;;4989102;28;20200;-83
2021/05/03 03:35:06;;;;;;;7.13;5.55;;;;;;;;;;5005652;28;20199;-81
2021/05/03 03:37:32;;;;;;;7.72;6.32;;;;;;;;;;5005533;28;20692;-83
2021/05/03 03:40:00;;;;;;;10.15;7.68;;;;;;;;;;5009677;28;20193;-82
2021/05/03 03:42:27;;;;;;;5.82;5.15;;;;;;;;;;5009764;28;20204;-81
2021/05/03 03:44:54;;;;;;;7.68;5.20;;;;;;;;;;5009940;28;20197;-83
2021/05/03 03:47:20;;;;;;;6.18;5.28;;;;;;;;;;5010122;28;20196;-82
2021/05/03 03:49:47;;;;;;;11.98;5.55;;;;;;;;;;5011417;28;20676;-80
2021/05/03 03:52:16;;;;;;;9.57;6.38;;;;;;;;;;5011162;28;20658;-81
2021/05/03 03:54:43;;;;;;;8.73;5.85;;;;;;;;;;5008855;28;20287;-80
2021/05/03 03:57:10;;;;;;;9.15;6.07;;;;;;;;;;5005807;28;20227;-81
2021/05/03 03:59:40;;;;;;;8.30;6.60;;;;;;;;;;5008125;28;20200;-79
2021/05/03 04:02:07;;;;;;;12.98;6.65;;;;;;;;;;5009559;28;20203;-82
2021/05/03 04:04:36;;;;;;;8.07;5.60;;;;;;;;;;5009675;28;20566;-78
2021/05/03 04:07:09;;;;;;;8.45;6.13;;;;;;;;;;5009176;28;20258;-83
2021/05/03 04:09:41;;;;;;;8.98;6.20;;;;;;;;;;5010984;28;20761;-83
2021/05/03 04:12:21;;;;;;;10.75;6.30;;;;;;;;;;5010967;28;20192;-82
2021/05/03 04:25:37;;;;;;;10.82;7.25;;;;;;;;;;4977519;28;20196;-82
2021/05/03 04:28:04;;;;;;;8.90;6.55;;;;;;;;;;4992863;28;20225;-85
2021/05/03 04:30:32;;;;;;;10.80;6.82;;;;;;;;;;5000827;28;20570;-83
2021/05/03 04:32:59;;;;;;;11.57;5.85;;;;;;;;;;4997049;28;20203;-80
2021/05/03 04:35:26;;;;;;;9.95;6.00;;;;;;;;;;5014417;28;20258;-78
2021/05/03 04:37:53;;;;;;;8.10;6.30;;;;;;;;;;5014252;28;20277;-81
2021/05/03 04:40:20;;;;;;;7.63;6.18;;;;;;;;;;5010857;28;20215;-78
2021/05/03 04:42:46;;;;;;;8.73;6.10;;;;;;;;;;5008252;28;20503;-81
2021/05/03 04:45:14;;;;;;;10.18;6.60;;;;;;;;;;5011670;28;20208;-81
2021/05/03 04:47:42;;;;;;;7.90;6.00;;;;;;;;;;5012000;28;20603;-82
2021/05/03 04:50:10;;;;;;;7.13;6.10;;;;;;;;;;4994430;28;20199;-80
2021/05/03 04:52:36;;;;;;;8.13;5.78;;;;;;;;;;4991121;28;20205;-85
2021/05/03 04:55:04;;;;;;;7.28;6.43;;;;;;;;;;4994211;28;20193;-81
2021/05/03 04:57:31;;;;;;;8.82;6.30;;;;;;;;;;4994338;28;20229;-81
2021/05/03 04:59:57;;;;;;;7.80;5.85;;;;;;;;;;5010549;28;20296;-81
2021/05/03 05:02:24;;;;;;;6.85;5.72;;;;;;;;;;5012157;28;20184;-77
2021/05/03 05:04:52;;;;;;;7.90;5.90;;;;;;;;;;5007953;28;20193;-82
2021/05/03 05:07:20;;;;;;;6.57;5.70;;;;;;;;;;5009825;28;20205;-83
2021/05/03 05:09:47;;;;;;;8.15;6.30;;;;;;;;;;5010496;28;20309;-80
2021/05/03 05:12:14;;;;;;;7.55;5.30;;;;;;;;;;5012016;28;20196;-80
2021/05/03 05:14:40;;;;;;;6.25;4.53;;;;;;;;;;5011812;28;20196;-77
2021/05/03 05:17:07;;;;;;;6.40;5.40;;;;;;;;;;5013063;28;20330;-81
2021/05/03 05:19:34;;;;;;;7.07;4.97;;;;;;;;;;5013945;28;20220;-80
2021/05/03 05:22:02;;;;;;;8.25;5.07;;;;;;;;;;5013371;28;20196;-81
2021/05/03 05:24:29;;;;;;;6.55;5.53;;;;;;;;;;5010850;28;20249;-81
2021/05/03 05:26:55;;;;;;;8.88;5.45;;;;;;;;;;5007918;28;20226;-82
2021/05/03 05:29:24;;;;;;;8.75;5.72;;;;;;;;;;5009840;28;20542;-80
2021/05/03 05:31:51;;;;;;;10.60;5.15;;;;;;;;;;5011062;28;20198;-79
2021/05/03 05:34:18;;;;;;;6.47;5.50;;;;;;;;;;5011250;28;20197;-82
2021/05/03 05:36:45;;;;;;;8.93;5.80;;;;;;;;;;5011673;28;20233;-82
2021/05/03 05:39:12;;;;;;;7.55;5.97;;;;;;;;;;4993471;28;20217;-80
2021/05/03 05:41:39;;;;;;;8.52;5.82;;;;;;;;;;5009950;28;20197;-83
2021/05/03 05:44:07;;;;;;;6.80;5.30;;;;;;;;;;5013314;28;20302;-80
2021/05/03 05:46:34;;;;;;;8.32;5.80;;;;;;;;;;5013049;28;20207;-80
2021/05/03 05:49:00;;;;;;;6.72;5.53;;;;;;;;;;5006904;28;20224;-80
2021/05/03 05:51:27;;;;;;;6.30;5.70;;;;;;;;;;5008066;28;20199;-80
2021/05/03 05:53:54;;;;;;;7.50;4.80;;;;;;;;;;4993172;28;21023;-82
2021/05/03 05:56:22;;;;;;;6.53;4.97;;;;;;;;;;5009706;28;20468;-81
2021/05/03 05:58:49;;;;;;;8.73;5.43;;;;;;;;;;5009784;28;20285;-80
2021/05/03 06:01:16;;;;;;;6.00;5.40;;;;;;;;;;5011993;28;20462;-81
2021/05/03 06:03:43;;;;;;;8.53;5.50;;;;;;;;;;5012449;28;20480;-81
2021/05/03 06:06:11;;;;;;;6.33;5.47;;;;;;;;;;5012348;28;20851;-84
2021/05/03 06:08:38;;;;;;;8.70;5.33;;;;;;;;;;4992202;28;20477;-81
2021/05/03 06:11:05;;;;;;;10.17;6.43;;;;;;;;;;5005931;28;20459;-81
2021/05/03 06:13:32;;;;;;;7.10;5.50;;;;;;;;;;5009975;28;20452;-78
2021/05/03 06:16:00;;;;;;;8.10;6.27;;;;;;;;;;5010597;28;20503;-83
2021/05/03 06:18:27;;;;;;;7.00;5.90;;;;;;;;;;5010561;28;20920;-81
2021/05/03 06:20:54;;;;;;;7.17;5.43;;;;;;;;;;5010942;28;20466;-81
2021/05/03 06:23:21;;;;;;;6.90;6.20;;;;;;;;;;5013274;28;20448;-79
2021/05/03 06:25:48;;;;;;;6.20;5.47;;;;;;;;;;5012478;28;20576;-79
2021/05/03 06:28:15;;;;;;;6.50;5.67;;;;;;;;;;5010391;28;20879;-80
2021/05/03 06:30:43;;;;;;;8.80;5.60;;;;;;;;;;5010613;28;20920;-84
2021/05/03 06:33:10;;;;;;;8.63;5.60;;;;;;;;;;5006120;28;20873;-77
2021/05/03 06:35:37;;;;;;;6.57;4.93;;;;;;;;;;5008698;28;20946;-81
2021/05/03 06:38:05;;;;;;;6.93;5.97;;;;;;;;;;5009875;28;20501;-76
2021/05/03 06:40:32;;;;;;;7.60;5.90;;;;;;;;;;5009275;28;20800;-79
2021/05/03 06:42:59;;;;;;;8.77;5.50;;;;;;;;;;5007794;28;20832;-78
2021/05/03 06:45:26;;;;;;;7.37;5.53;;;;;;;;;;5007922;28;20488;-78
2021/05/03 06:47:54;;;;;;;9.93;5.70;;;;;;;;;;5006378;28;20589;-78
2021/05/03 06:50:21;;;;;;;8.43;6.00;;;;;;;;;;5009026;28;20804;-79
2021/05/03 06:52:48;;;;;;;7.17;5.70;;;;;;;;;;5009745;28;20459;-77
2021/05/03 06:55:15;;;;;;;8.33;5.00;;;;;;;;;;5007883;28;20903;-78
2021/05/03 06:57:43;;;;;;;6.13;5.53;;;;;;;;;;4990390;28;20495;-78
2021/05/03 07:00:11;;;;;;;7.83;5.50;;;;;;;;;;5009872;28;20936;-79
2021/05/03 07:02:38;;;;;;;6.37;5.67;;;;;;;;;;4987563;28;20446;-78
2021/05/03 07:05:07;;;;;;;7.63;5.30;;;;;;;;;;5007778;28;20781;-79
2021/05/03 07:07:34;;;;;;;8.10;5.20;;;;;;;;;;5007978;28;20567;-79
2021/05/03 07:10:01;;;;;;;5.20;4.70;;;;;;;;;;5008942;28;20484;-77
2021/05/03 07:12:27;;;;;;;7.20;5.63;;;;;;;;;;5009800;28;20494;-77
2021/05/03 07:14:54;;;;;;;7.33;6.20;;;;;;;;;;5013100;28;20455;-75
2021/05/03 07:17:21;;;;;;;8.50;5.67;;;;;;;;;;4989354;28;20488;-78
2021/05/03 07:19:48;;;;;;;8.80;5.00;;;;;;;;;;4991641;28;20509;-78
2021/05/03 07:22:16;;;;;;;11.43;4.70;;;;;;;;;;4996891;28;20453;-80
2021/05/03 07:24:43;;;;;;;7.13;5.80;;;;;;;;;;5007091;28;20442;-78
2021/05/03 07:27:10;;;;;;;7.93;5.43;;;;;;;;;;5005731;28;20788;-80
2021/05/03 07:29:37;;;;;;;6.57;4.83;;;;;;;;;;5009216;28;20435;-79
2021/05/03 07:32:04;;;;;;;8.17;7.03;;;;;;;;;;5009465;28;20505;-80
2021/05/03 07:34:31;;;;;;;13.73;5.70;;;;;;;;;;5009852;28;20962;-80
2021/05/03 07:36:58;;;;;;;6.50;5.10;;;;;;;;;;5010265;28;20463;-83
2021/05/03 07:39:26;;;;;;;6.67;4.70;;;;;;;;;;5010717;28;20485;-82
2021/05/03 07:41:53;;;;;;;7.00;5.03;;;;;;;;;;5011513;28;20443;-83
2021/05/03 07:44:21;;;;;;;6.23;4.87;;;;;;;;;;5011476;28;20447;-83
2021/05/03 07:46:48;;;;;;;9.93;5.10;;;;;;;;;;5008579;28;20832;-78
2021/05/03 07:49:15;;;;;;;7.37;4.83;;;;;;;;;;5004427;28;20475;-78
2021/05/03 07:51:42;;;;;;;6.93;4.60;;;;;;;;;;5007520;28;20898;-83
2021/05/03 07:54:09;;;;;;;7.27;4.93;;;;;;;;;;5009534;28;20457;-78
2021/05/03 07:56:36;;;;;;;4.90;4.13;;;;;;;;;;5012971;28;20421;-82
2021/05/03 07:59:04;;;;;;;6.50;4.70;;;;;;;;;;5011556;28;20913;-79
2021/05/03 08:01:30;;;;;;;4.83;3.40;;;;;;;;;;5014594;28;20421;-78
2021/05/03 08:03:57;;;;;;;11.30;6.37;;;;;;;;;;5015067;28;20435;-80
2021/05/03 08:06:24;;;;;;;6.90;5.00;;;;;;;;;;5014941;28;20911;-79
2021/05/03 08:08:50;;;;;;;6.53;4.27;;;;;;;;;;5006520;28;20453;-78
2021/05/03 08:11:19;;;;;;;6.60;4.10;;;;;;;;;;5008560;28;20493;-80
2021/05/03 08:13:47;;;;;;;5.97;4.30;;;;;;;;;;5010488;28;20509;-81
2021/05/03 08:16:16;;;;;;;8.73;4.33;;;;;;;;;;5011196;28;20533;-77
2021/05/03 08:18:43;;;;;;;7.70;3.50;;;;;;;;;;5012350;28;20498;-80
2021/05/03 08:21:10;;;;;;;5.47;3.73;;;;;;;;;;5013190;28;20874;-81
2021/05/03 08:23:37;;;;;;;6.93;3.80;;;;;;;;;;5013939;28;20499;-78
2021/05/03 08:26:04;;;;;;;5.90;4.40;;;;;;;;;;4991870;28;20952;-77
2021/05/03 08:28:31;;;;;;;4.40;3.73;;;;;;;;;;5001968;28;20467;-82
2021/05/03 08:30:59;;;;;;;5.27;3.87;;;;;;;;;;5014529;28;20759;-75
2021/05/03 08:33:26;;;;;;;5.83;4.00;;;;;;;;;;5010420;28;20443;-78
2021/05/03 08:35:56;;;;;;;5.03;4.10;;;;;;;;;;5009157;28;20402;-78
2021/05/03 08:38:23;;;;;;;5.53;3.27;;;;;;;;;;5012689;28;21273;-78
2021/05/03 08:40:50;;;;;;;3.53;3.23;;;;;;;;;;5011422;28;20414;-80
2021/05/03 08:43:17;;;;;;;4.73;3.70;;;;;;;;;;4991595;28;20414;-77
2021/05/03 08:45:43;;;;;;;4.83;3.70;;;;;;;;;;4999665;28;20462;-77
2021/05/03 08:48:17;;;;;;;6.63;3.70;;;;;;;;;;5013754;28;21031;-78
2021/05/03 08:53:29;;;;;;;7.83;3.83;;;;;;;;;;4998531;28;20414;-79
2021/05/03 08:55:56;;;;;;;8.47;4.17;;;;;;;;;;4995034;28;20468;-77
2021/05/03 08:58:23;;;;;;;5.40;4.10;;;;;;;;;;5007109;28;20497;-77
2021/05/03 09:00:50;;;;;;;7.30;4.30;;;;;;;;;;5009421;28;20521;-80
2021/05/03 09:03:19;;;;;;;7.13;4.80;;;;;;;;;;5011127;28;20960;-76
2021/05/03 09:05:46;;;;;;;6.00;3.93;;;;;;;;;;5010833;28;20468;-80
2021/05/03 09:08:27;;;;;;;10.23;5.77;;;;;;;;;;5011690;28;20468;-81
2021/05/03 09:10:55;;;;;;;5.07;3.90;;;;;;;;;;4992154;28;20519;-77
2021/05/03 09:13:27;;;;;;;5.60;3.67;;;;;;;;;;4993972;28;20508;-78
2021/05/03 09:16:11;;;;;;;7.67;3.70;;;;;;;;;;4993507;28;20443;-80
2021/05/03 09:18:40;;;;;;;8.90;5.10;;;;;;;;;;5007963;28;20488;-77
2021/05/03 09:21:07;;;;;;;5.10;4.20;;;;;;;;;;5006952;28;20487;-78
2021/05/03 09:23:48;;;;;;;7.43;4.40;;;;;;;;;;4991669;28;20409;-82
2021/05/03 09:26:29;;;;;;;8.13;4.20;;;;;;;;;;4996236;28;20447;-77
2021/05/03 09:28:56;;;;;;;6.53;4.63;;;;;;;;;;4993838;28;20865;-79
2021/05/03 09:31:23;;;;;;;5.30;4.40;;;;;;;;;;5010351;28;20420;-79
2021/05/03 09:33:50;;;;;;;8.80;4.97;;;;;;;;;;5013252;28;20529;-78
2021/05/03 09:36:22;;;;;;;4.57;3.67;;;;;;;;;;5013578;28;20938;-78
2021/05/03 09:38:50;;;;;;;5.17;4.10;;;;;;;;;;4996127;28;20574;-78
2021/05/03 09:41:19;;;;;;;8.37;4.93;;;;;;;;;;5013380;28;20504;-80
2021/05/03 09:43:47;;;;;;;6.03;4.10;;;;;;;;;;5006465;28;21805;-77
2021/05/03 09:46:28;;;;;;;4.93;4.13;;;;;;;;;;5008710;28;20401;-80
2021/05/03 09:48:57;;;;;;;4.60;4.13;;;;;;;;;;4996065;28;20958;-77
2021/05/03 09:51:31;;;;;;;5.87;4.00;;;;;;;;;;5010673;28;20452;-77
2021/05/03 09:54:02;;;;;;;4.23;3.83;;;;;;;;;;5009361;28;20424;-77
2021/05/03 09:56:45;;;;;;;5.30;4.40;;;;;;;;;;5008631;28;20418;-77
2021/05/03 09:59:24;;;;;;;4.20;3.80;;;;;;;;;;5006826;28;20521;-75
2021/05/03 10:02:00;;;;;;;6.00;4.03;;;;;;;;;;4992783;28;20425;-74
2021/05/03 10:04:28;;;;;;;5.07;4.53;;;;;;;;;;5008913;28;20455;-76
2021/05/03 10:06:54;;;;;;;4.40;4.00;;;;;;;;;;4993119;28;20412;-79
2021/05/03 10:09:22;;;;;;;4.67;3.93;;;;;;;;;;5008499;28;20683;-77
2021/05/03 10:11:49;;;;;;;4.50;3.60;;;;;;;;;;5005420;28;20450;-81
2021/05/03 10:14:16;;;;;;;8.93;4.80;;;;;;;;;;5006835;28;20455;-77
2021/05/03 10:16:43;;;;;;;8.60;4.30;;;;;;;;;;5011258;28;20447;-83
2021/05/03 10:19:12;;;;;;;5.13;4.33;;;;;;;;;;5010479;28;20983;-83
2021/05/03 10:21:43;;;;;;;5.17;4.00;;;;;;;;;;5011038;28;20467;-78
2021/05/03 10:24:10;;;;;;;9.43;4.03;;;;;;;;;;5010348;28;20988;-81
2021/05/03 10:26:37;;;;;;;4.77;4.33;;;;;;;;;;5012406;28;20443;-78
2021/05/03 10:29:04;;;;;;;7.47;5.03;;;;;;;;;;5011778;28;20558;-79
2021/05/03 10:31:50;;;;;;;5.17;4.23;;;;;;;;;;5011938;28;20504;-81
2021/05/03 10:34:32;;;;;;;6.73;3.93;;;;;;;;;;4990952;28;20418;-79
2021/05/03 10:37:00;;;;;;;4.37;3.97;;;;;;;;;;4992330;28;20471;-77
2021/05/03 10:39:39;;;;;;;5.07;4.57;;;;;;;;;;5010530;28;20843;-78
2021/05/03 10:42:07;;;;;;;5.20;4.70;;;;;;;;;;5010316;28;20417;-77
2021/05/03 10:44:36;;;;;;;7.27;4.87;;;;;;;;;;5010236;28;20439;-77
2021/05/03 10:47:22;;;;;;;4.83;4.07;;;;;;;;;;4989763;28;20438;-77
2021/05/03 10:49:49;;;;;;;4.43;4.03;;;;;;;;;;4978053;28;20430;-78
2021/05/03 10:52:32;;;;;;;6.30;3.90;;;;;;;;;;5006647;28;20426;-81
2021/05/03 10:54:59;;;;;;;5.07;4.57;;;;;;;;;;5011094;28;20792;-81
2021/05/03 10:57:37;;;;;;;3.83;3.53;;;;;;;;;;4996579;28;20457;-83
2021/05/03 11:00:06;;;;;;;4.63;4.10;;;;;;;;;;5008280;28;21012;-79
2021/05/03 11:02:48;;;;;;;4.93;3.90;;;;;;;;;;5009928;28;20421;-81
2021/05/03 11:05:18;;;;;;;4.93;4.20;;;;;;;;;;4994768;28;20442;-81
2021/05/03 11:08:00;;;;;;;4.53;3.53;;;;;;;;;;5009395;28;20525;-79
2021/05/03 11:10:41;;;;;;;4.20;3.73;;;;;;;;;;4994644;28;20932;-81
2021/05/03 11:13:23;;;;;;;3.60;2.87;;;;;;;;;;4986610;28;20438;-79
2021/05/03 11:15:50;;;;;;;3.90;3.50;;;;;;;;;;4992924;28;20448;-82
2021/05/03 11:18:19;;;;;;;7.47;5.40;;;;;;;;;;5009032;28;20868;-78
2021/05/03 11:21:02;;;;;;;7.23;4.30;;;;;;;;;;5009686;28;20447;-81
2021/05/03 11:23:30;;;;;;;4.63;3.20;;;;;;;;;;5007950;28;20447;-80
2021/05/03 11:25:58;;;;;;;3.63;3.33;;;;;;;;;;5006137;28;20435;-79
2021/05/03 11:28:30;;;;;;;3.80;3.50;;;;;;;;;;5005642;28;21208;-82
2021/05/03 11:31:00;;;;;;;4.70;3.70;;;;;;;;;;5012402;28;20868;-77
2021/05/03 11:33:36;;;;;;;4.50;4.10;;;;;;;;;;5013400;28;20442;-78
2021/05/03 11:36:13;;;;;;;4.30;3.90;;;;;;;;;;4995963;28;20454;-78
2021/05/03 11:38:47;;;;;;;4.40;4.00;;;;;;;;;;5012376;28;20501;-79
2021/05/03 11:41:27;;;;;;;4.10;3.50;;;;;;;;;;5009345;28;20446;-77
2021/05/03 11:43:58;;;;;;;5.03;3.83;;;;;;;;;;4989707;28;20472;-79
2021/05/03 11:46:31;;;;;;;3.73;3.33;;;;;;;;;;5004469;28;20839;-81
2021/05/03 11:48:59;;;;;;;5.10;4.60;;;;;;;;;;4993213;28;20487;-82
2021/05/03 11:51:26;;;;;;;6.40;5.30;;;;;;;;;;4990892;28;20445;-76
2021/05/03 11:53:53;;;;;;;6.43;5.30;;;;;;;;;;5009310;28;20444;-81
2021/05/03 11:56:21;;;;;;;5.30;4.80;;;;;;;;;;5009627;28;20773;-79
2021/05/03 11:58:48;;;;;;;5.17;4.77;;;;;;;;;;4990990;28;20541;-79
2021/05/03 12:01:16;;;;;;;6.37;5.03;;;;;;;;;;4976042;28;20449;-79
2021/05/03 12:03:44;;;;;;;6.60;4.77;;;;;;;;;;4993613;28;20423;-79
2021/05/03 12:06:11;;;;;;;6.23;4.20;;;;;;;;;;5005047;28;20437;-78
2021/05/03 12:08:39;;;;;;;4.70;4.20;;;;;;;;;;5012870;28;20991;-82
2021/05/03 12:11:08;;;;;;;4.03;3.70;;;;;;;;;;5010295;28;20845;-79
2021/05/03 12:13:35;;;;;;;4.40;3.60;;;;;;;;;;5006455;28;20424;-80
2021/05/03 12:16:02;;;;;;;5.10;4.00;;;;;;;;;;5006949;28;20421;-79
2021/05/03 12:18:29;;;;;;;5.53;3.60;;;;;;;;;;5008481;28;20510;-76
2021/05/03 12:20:56;;;;;;;3.93;3.53;;;;;;;;;;5008645;28;20442;-80
2021/05/03 12:23:25;;;;;;;3.97;3.57;;;;;;;;;;5008284;28;21147;-78
2021/05/03 12:25:54;;;;;;;3.17;2.87;;;;;;;;;;5008198;28;20434;-80
2021/05/03 12:28:22;;;;;;;4.07;3.60;;;;;;;;;;5005030;28;21626;-79
2021/05/03 12:30:50;;;;;;;4.10;3.70;;;;;;;;;;5008470;28;20530;-80
2021/05/03 12:33:18;;;;;;;4.07;3.63;;;;;;;;;;5009605;28;20447;-77
2021/05/03 12:35:46;;;;;;;4.50;4.10;;;;;;;;;;5009490;28;20442;-76
2021/05/03 12:38:17;;;;;;;7.53;3.97;;;;;;;;;;4989603;28;21236;-77
2021/05/03 12:40:44;;;;;;;4.07;3.50;;;;;;;;;;5007532;28;20486;-79
2021/05/03 12:43:12;;;;;;;4.87;3.23;;;;;;;;;;5005804;28;20446;-78
2021/05/03 12:45:43;;;;;;;5.10;3.40;;;;;;;;;;5011234;28;20418;-80
2021/05/03 12:48:23;;;;;;;3.33;3.00;;;;;;;;;;5010713;28;20471;-78
2021/05/03 12:51:03;;;;;;;3.00;2.70;;;;;;;;;;4990442;28;20989;-79
2021/05/03 12:53:34;;;;;;;3.70;3.20;;;;;;;;;;4985442;28;20837;-76
2021/05/03 12:56:19;;;;;;;4.10;3.70;;;;;;;;;;5014152;28;20454;-77
2021/05/03 12:59:00;;;;;;;4.70;3.70;;;;;;;;;;5013829;28;20530;-77
2021/05/03 13:01:35;;;;;;;4.20;3.70;;;;;;;;;;4997138;28;20428;-78
2021/05/03 13:04:13;;;;;;;4.97;3.67;;;;;;;;;;5009514;28;20448;-76
2021/05/03 13:07:03;;;;;;;4.43;3.90;;;;;;;;;;5008069;28;20963;-76
2021/05/03 13:09:43;;;;;;;3.90;3.60;;;;;;;;;;5011651;28;20441;-76
2021/05/03 13:12:36;;;;;;;3.77;3.47;;;;;;;;;;5011913;28;20442;-78
2021/05/03 13:29:01;;;;;;;2.83;2.53;;;;;;;;;;4990375;28;20895;-77
2021/05/03 13:31:28;;;;;;;5.83;3.60;;;;;;;;;;4990099;28;20418;-76
2021/05/03 13:33:55;;;;;;;3.70;3.30;;;;;;;;;;4991963;28;20422;-76
2021/05/03 13:36:22;;;;;;;3.50;3.20;;;;;;;;;;5007577;28;20965;-76
2021/05/03 13:38:49;;;;;;;3.63;3.13;;;;;;;;;;5011315;28;20548;-77
2021/05/03 13:41:17;;;;;;;5.27;3.10;;;;;;;;;;5012949;28;20450;-77
2021/05/03 13:43:44;;;;;;;3.10;2.90;;;;;;;;;;5013178;28;20445;-77
2021/05/03 13:46:11;;;;;;;3.83;3.50;;;;;;;;;;5012134;28;20512;-80
2021/05/03 13:48:39;;;;;;;4.37;3.63;;;;;;;;;;5010851;28;20437;-79
2021/05/03 13:51:07;;;;;;;7.40;3.40;;;;;;;;;;5007298;28;20410;-78
2021/05/03 13:53:34;;;;;;;4.03;3.37;;;;;;;;;;5009348;28;20500;-78
2021/05/03 13:56:01;;;;;;;4.40;3.70;;;;;;;;;;5009971;28;20426;-78
2021/05/03 13:58:30;;;;;;;4.20;3.13;;;;;;;;;;5010391;28;20966;-79
2021/05/03 14:00:56;;;;;;;3.43;3.13;;;;;;;;;;5010572;28;20463;-77
2021/05/03 14:03:23;;;;;;;3.87;3.47;;;;;;;;;;5007803;28;20435;-78
2021/05/03 14:05:50;;;;;;;4.60;3.23;;;;;;;;;;5007469;28;20431;-77
2021/05/03 14:08:17;;;;;;;3.53;3.23;;;;;;;;;;5008410;28;20993;-77
2021/05/03 14:10:44;;;;;;;5.40;3.80;;;;;;;;;;5010523;28;20926;-77
2021/05/03 14:13:11;;;;;;;4.07;3.07;;;;;;;;;;5010719;28;20453;-77
2021/05/03 14:15:39;;;;;;;4.93;3.43;;;;;;;;;;4990296;28;20463;-76
2021/05/03 14:18:07;;;;;;;3.20;2.93;;;;;;;;;;5001696;28;20478;-78
2021/05/03 14:20:34;;;;;;;3.80;2.87;;;;;;;;;;5012159;28;20410;-78
2021/05/03 14:23:01;;;;;;;5.47;2.87;;;;;;;;;;5012431;28;20410;-77
2021/05/03 14:25:30;;;;;;;3.33;3.03;;;;;;;;;;5009274;28;20435;-77
2021/05/03 14:27:59;;;;;;;5.77;3.30;;;;;;;;;;5005810;28;20546;-76
2021/05/03 14:30:29;;;;;;;3.20;2.60;;;;;;;;;;5009718;28;20418;-77
2021/05/03 14:32:59;;;;;;;3.40;2.60;;;;;;;;;;5010314;28;20414;-79
2021/05/03 14:35:26;;;;;;;3.90;3.00;;;;;;;;;;5009977;28;20472;-77
2021/05/03 14:37:53;;;;;;;5.97;2.90;;;;;;;;;;5010292;28;20490;-77
2021/05/03 14:40:21;;;;;;;3.30;2.83;;;;;;;;;;4991338;28;20438;-79
2021/05/03 14:42:53;;;;;;;4.00;2.93;;;;;;;;;;5011189;28;20438;-77
2021/05/03 14:45:20;;;;;;;5.13;2.77;;;;;;;;;;4995635;28;20447;-79
2021/05/03 14:47:55;;;;;;;4.13;2.73;;;;;;;;;;5009835;28;20821;-76
2021/05/03 14:50:30;;;;;;;3.90;2.80;;;;;;;;;;5004997;28;20429;-82
2021/05/03 14:53:14;;;;;;;3.33;3.03;;;;;;;;;;5009386;28;20417;-79
2021/05/03 14:55:41;;;;;;;6.13;3.00;;;;;;;;;;4995031;28;20445;-80
2021/05/03 14:58:08;;;;;;;6.60;3.27;;;;;;;;;;5009410;28;20469;-78
2021/05/03 15:00:35;;;;;;;3.83;2.87;;;;;;;;;;5009376;28;20897;-83
2021/05/03 15:03:01;;;;;;;3.13;2.80;;;;;;;;;;5011106;28;20449;-78
2021/05/03 15:05:29;;;;;;;3.40;3.10;;;;;;;;;;5011042;28;20767;-79
2021/05/03 15:07:56;;;;;;;2.90;2.70;;;;;;;;;;5011122;28;21001;-79
2021/05/03 15:10:23;;;;;;;2.60;2.33;;;;;;;;;;5010500;28;21266;-84
2021/05/03 15:12:52;;;;;;;3.50;2.60;;;;;;;;;;5005935;28;20410;-80
2021/05/03 15:15:27;;;;;;;3.83;2.83;;;;;;;;;;5006938;28;20417;-82
2021/05/03 15:18:07;;;;;;;4.77;3.20;;;;;;;;;;5006609;28;20817;-81
2021/05/03 15:23:16;;;;;;;3.67;2.83;;;;;;;;;;5008736;28;20512;-81